createdAt,value
2018-01-22T00:01:16.889Z,34.67
2018-01-22T00:03:44.491Z,38.28
2018-01-22T00:06:11.910Z,36.42
2018-01-22T00:08:39.354Z,35.55
2018-01-22T00:11:06.791Z,36.05
2018-01-22T00:13:34.227Z,38.80
2018-01-22T00:16:02.442Z,35.13
2018-01-22T00:18:30.001Z,40.00
2018-01-22T00:20:57.433Z,38.67
2018-01-22T00:23:24.875Z,36.80
2018-01-22T00:25:52.366Z,36.28
2018-01-22T00:28:19.808Z,38.33
2018-01-22T00:30:47.282Z,39.38
2018-01-22T00:33:14.743Z,36.15
2018-01-22T00:35:42.181Z,38.88
2018-01-22T00:38:09.649Z,37.50
2018-01-22T00:40:37.081Z,39.08
2018-01-22T00:43:04.566Z,36.63
2018-01-22T00:45:32.010Z,39.40
2018-01-22T00:47:59.479Z,38.25
2018-01-22T00:50:26.945Z,38.38
2018-01-22T00:52:54.393Z,38.90
2018-01-22T00:55:21.855Z,35.03
2018-01-22T00:57:49.307Z,34.90
2018-01-22T01:00:16.750Z,38.30
2018-01-22T01:02:44.182Z,37.58
2018-01-22T01:05:11.665Z,38.88
2018-01-22T01:07:39.137Z,37.47
2018-01-22T01:10:06.577Z,39.40
2018-01-22T01:12:34.021Z,40.42
2018-01-22T01:15:01.447Z,39.45
2018-01-22T01:17:29.655Z,36.97
2018-01-22T01:19:57.100Z,42.10
2018-01-22T01:22:24.587Z,42.28
2018-01-22T01:24:52.011Z,41.13
2018-01-22T01:27:19.499Z,44.50
2018-01-22T01:29:46.978Z,44.45
2018-01-22T01:32:14.405Z,44.65
2018-01-22T01:34:41.876Z,44.55
2018-01-22T01:37:09.405Z,47.75
2018-01-22T01:39:36.815Z,45.85
2018-01-22T01:42:04.337Z,52.72
2018-01-22T01:44:31.762Z,47.50
2018-01-22T01:46:59.201Z,49.13
2018-01-22T01:49:27.391Z,49.97
2018-01-22T01:51:54.877Z,50.40
2018-01-22T01:54:22.333Z,50.88
2018-01-22T01:56:49.773Z,55.88
2018-01-22T01:59:17.245Z,51.13
2018-01-22T02:01:44.691Z,53.63
2018-01-22T02:04:12.142Z,50.22
2018-01-22T02:06:39.567Z,50.67
2018-01-22T02:09:07.762Z,50.05
2018-01-22T02:11:35.189Z,48.90
2018-01-22T02:14:03.425Z,49.08
2018-01-22T02:16:30.874Z,46.53
2018-01-22T02:18:58.464Z,48.60
2018-01-22T02:21:25.985Z,51.37
2018-01-22T02:23:53.413Z,45.03
2018-01-22T02:26:20.849Z,47.42
2018-01-22T02:28:49.049Z,49.30
2018-01-22T02:31:16.574Z,45.78
2018-01-22T02:33:43.986Z,45.28
2018-01-22T02:36:11.431Z,50.03
2018-01-22T02:38:38.905Z,46.72
2018-01-22T02:41:06.345Z,49.03
2018-01-22T02:43:33.770Z,50.12
2018-01-22T02:46:01.213Z,49.75
2018-01-22T02:48:29.454Z,49.47
2018-01-22T02:50:56.904Z,48.90
2018-01-22T02:53:24.341Z,47.45
2018-01-22T02:55:51.890Z,53.70
2018-01-22T02:58:19.314Z,52.00
2018-01-22T03:00:47.550Z,46.28
2018-01-22T03:03:14.989Z,50.33
2018-01-22T03:05:42.429Z,48.00
2018-01-22T03:08:09.922Z,52.05
2018-01-22T03:10:37.373Z,46.60
2018-01-22T03:13:04.833Z,49.00
2018-01-22T03:15:32.266Z,47.78
2018-01-22T03:17:59.714Z,45.35
2018-01-22T03:20:27.149Z,43.15
2018-01-22T03:22:55.355Z,46.83
2018-01-22T03:25:22.782Z,49.45
2018-01-22T03:27:50.289Z,46.08
2018-01-22T03:30:17.849Z,41.10
2018-01-22T03:32:45.306Z,46.60
2018-01-22T03:35:12.852Z,44.13
2018-01-22T03:37:40.296Z,43.72
2018-01-22T03:40:07.730Z,38.80
2018-01-22T03:42:35.222Z,43.50
2018-01-22T03:47:36.701Z,42.05
2018-01-22T03:50:04.158Z,44.47
2018-01-22T03:52:31.606Z,39.85
2018-01-22T03:54:59.070Z,41.67
2018-01-22T03:57:26.545Z,45.42
2018-01-22T03:59:54.073Z,39.90
2018-01-22T04:02:21.509Z,43.20
2018-01-22T04:04:48.989Z,40.63
2018-01-22T04:07:17.261Z,44.53
2018-01-22T04:09:44.692Z,43.05
2018-01-22T04:12:12.138Z,41.58
2018-01-22T04:14:39.576Z,45.95
2018-01-22T04:17:07.822Z,40.38
2018-01-22T04:19:35.270Z,45.30
2018-01-22T04:22:02.736Z,46.35
2018-01-22T04:24:30.193Z,40.75
2018-01-22T04:26:57.642Z,42.67
2018-01-22T04:29:25.101Z,46.50
2018-01-22T04:31:52.658Z,46.40
2018-01-22T04:34:20.292Z,41.85
2018-01-22T04:36:47.766Z,45.60
2018-01-22T04:39:15.204Z,43.08
2018-01-22T04:41:42.677Z,44.05
2018-01-22T04:44:10.109Z,44.58
2018-01-22T04:46:37.590Z,43.70
2018-01-22T04:49:05.046Z,44.67
2018-01-22T04:51:32.496Z,47.08
2018-01-22T04:53:59.925Z,47.28
2018-01-22T04:56:27.410Z,45.97
2018-01-22T04:58:54.869Z,42.40
2018-01-22T05:01:22.307Z,48.78
2018-01-22T05:03:49.737Z,48.33
2018-01-22T05:06:17.933Z,47.00
2018-01-22T05:08:45.374Z,45.78
2018-01-22T05:11:12.796Z,48.58
2018-01-22T05:13:40.259Z,49.42
2018-01-22T05:16:07.692Z,47.65
2018-01-22T05:18:35.110Z,43.80
2018-01-22T05:21:02.590Z,43.03
2018-01-22T05:23:30.045Z,46.42
2018-01-22T05:25:57.509Z,46.58
2018-01-22T05:28:24.962Z,47.30
2018-01-22T05:30:52.404Z,45.13
2018-01-22T05:33:19.873Z,42.27
2018-01-22T05:35:47.310Z,44.80
2018-01-22T05:38:14.762Z,48.07
2018-01-22T05:40:42.205Z,48.50
2018-01-22T05:43:09.647Z,46.80
2018-01-22T05:45:37.874Z,45.12
2018-01-22T05:48:05.327Z,44.10
2018-01-22T05:50:32.821Z,49.50
2018-01-22T05:53:00.345Z,47.70
2018-01-22T05:55:27.772Z,48.22
2018-01-22T05:57:55.211Z,45.12
2018-01-22T06:00:23.402Z,40.08
2018-01-22T06:02:50.857Z,47.40
2018-01-22T06:05:18.293Z,45.40
2018-01-22T06:07:46.505Z,48.75
2018-01-22T06:10:13.954Z,48.17
2018-01-22T06:12:41.380Z,47.20
2018-01-22T06:15:09.573Z,46.28
2018-01-22T06:17:37.013Z,46.60
2018-01-22T06:20:04.446Z,48.58
2018-01-22T06:22:31.882Z,49.58
2018-01-22T06:24:59.313Z,53.85
2018-01-22T06:27:26.755Z,50.40
2018-01-22T06:29:54.205Z,49.08
2018-01-22T06:32:21.698Z,43.35
2018-01-22T06:34:49.125Z,48.28
2018-01-22T06:37:16.626Z,53.10
2018-01-22T06:39:44.066Z,51.00
2018-01-22T06:42:11.505Z,49.75
2018-01-22T06:44:38.964Z,50.22
2018-01-22T06:47:06.521Z,45.42
2018-01-22T06:49:34.017Z,49.92
2018-01-22T06:52:01.454Z,48.95
2018-01-22T06:54:28.992Z,48.78
2018-01-22T06:56:56.409Z,49.23
2018-01-22T06:59:24.610Z,48.10
2018-01-22T07:01:52.056Z,47.03
2018-01-22T07:04:19.533Z,48.45
2018-01-22T07:06:47.093Z,48.15
2018-01-22T07:09:14.513Z,48.25
2018-01-22T07:11:42.738Z,48.30
2018-01-22T07:14:10.177Z,50.28
2018-01-22T07:16:37.614Z,44.92
2018-01-22T07:19:05.916Z,44.13
2018-01-22T07:21:33.353Z,48.87
2018-01-22T07:24:00.931Z,49.50
2018-01-22T07:26:28.406Z,50.20
2018-01-22T07:28:55.944Z,43.13
2018-01-22T07:31:23.354Z,46.83
2018-01-22T07:33:51.676Z,45.00
2018-01-22T07:36:19.085Z,48.80
2018-01-22T07:38:47.408Z,46.75
2018-01-22T07:41:14.967Z,47.62
2018-01-22T07:43:42.437Z,47.42
2018-01-22T07:46:09.879Z,45.60
2018-01-22T07:48:37.316Z,50.40
2018-01-22T07:51:04.741Z,50.03
2018-01-22T07:53:32.238Z,51.35
2018-01-22T07:55:59.708Z,49.10
2018-01-22T07:58:27.160Z,45.23
2018-01-22T08:00:54.719Z,46.63
2018-01-22T08:03:22.201Z,46.50
2018-01-22T08:05:49.641Z,47.55
2018-01-22T08:08:17.191Z,47.53
2018-01-22T08:10:44.629Z,49.38
2018-01-22T08:13:12.070Z,47.17
2018-01-22T08:15:40.381Z,49.30
2018-01-22T08:18:07.940Z,51.95
2018-01-22T08:20:35.498Z,45.88
2018-01-22T08:23:02.917Z,51.47
2018-01-22T08:25:31.126Z,46.75
2018-01-22T08:27:58.583Z,48.72
2018-01-22T08:30:26.052Z,45.45
2018-01-22T08:32:53.505Z,49.42
2018-01-22T08:35:20.978Z,48.75
2018-01-22T08:37:48.512Z,46.37
2018-01-22T08:40:15.935Z,48.65
2018-01-22T08:42:44.248Z,48.72
2018-01-22T08:45:11.671Z,47.67
2018-01-22T08:47:39.978Z,43.75
2018-01-22T08:50:07.474Z,47.70
2018-01-22T08:52:34.921Z,45.55
2018-01-22T08:55:02.448Z,46.97
2018-01-22T08:57:29.890Z,48.10
2018-01-22T08:59:58.181Z,45.58
2018-01-22T09:02:25.597Z,46.78
2018-01-22T09:04:53.915Z,47.90
2018-01-22T09:07:21.329Z,46.90
2018-01-22T09:09:49.568Z,46.80
2018-01-22T09:12:17.006Z,45.33
2018-01-22T09:14:44.471Z,42.58
2018-01-22T09:17:11.934Z,43.40
2018-01-22T09:19:39.390Z,43.17
2018-01-22T09:22:06.836Z,43.47
2018-01-22T09:24:34.307Z,41.10
2018-01-22T09:27:01.771Z,42.20
2018-01-22T09:29:29.219Z,45.72
2018-01-22T09:31:56.756Z,43.67
2018-01-22T09:34:24.198Z,40.25
2018-01-22T09:36:51.639Z,45.35
2018-01-22T09:39:19.837Z,42.90
2018-01-22T09:41:47.271Z,44.60
2018-01-22T09:44:15.502Z,43.40
2018-01-22T09:46:42.945Z,44.63
2018-01-22T09:49:10.385Z,41.70
2018-01-22T09:51:37.855Z,43.35
2018-01-22T09:54:05.401Z,40.30
2018-01-22T09:56:32.810Z,44.57
2018-01-22T09:59:00.338Z,45.20
2018-01-22T10:01:27.794Z,39.47
2018-01-22T10:03:55.331Z,43.20
2018-01-22T10:06:22.777Z,46.35
2018-01-22T10:08:50.279Z,44.55
2018-01-22T10:11:17.805Z,42.25
2018-01-22T10:13:45.363Z,49.25
2018-01-22T10:16:12.774Z,45.95
2018-01-22T10:18:41.027Z,43.25
2018-01-22T10:21:08.465Z,41.17
2018-01-22T10:23:35.924Z,45.03
2018-01-22T10:26:03.365Z,45.50
2018-01-22T10:28:30.822Z,42.58
2018-01-22T10:30:58.250Z,42.92
2018-01-22T10:33:26.482Z,42.83
2018-01-22T10:35:53.922Z,42.20
2018-01-22T10:38:21.360Z,45.60
2018-01-22T10:40:48.789Z,43.53
2018-01-22T10:43:17.014Z,43.83
2018-01-22T10:45:44.557Z,42.00
2018-01-22T10:48:12.012Z,42.05
2018-01-22T10:50:40.292Z,45.58
2018-01-22T10:53:07.779Z,40.30
2018-01-22T10:55:35.203Z,44.75
2018-01-22T10:58:02.762Z,46.40
2018-01-22T11:00:30.169Z,44.63
2018-01-22T11:02:57.743Z,45.55
2018-01-22T11:05:25.965Z,41.60
2018-01-22T11:07:53.405Z,45.72
2018-01-22T11:10:20.840Z,41.03
2018-01-22T11:12:48.265Z,43.83
2018-01-22T11:15:15.706Z,39.63
2018-01-22T11:17:43.233Z,40.78
2018-01-22T11:20:10.649Z,42.83
2018-01-22T11:22:38.089Z,42.90
2018-01-22T11:25:05.533Z,48.97
2018-01-22T11:27:33.059Z,41.28
2018-01-22T11:30:00.537Z,41.35
2018-01-22T11:32:28.071Z,43.78
2018-01-22T11:34:55.493Z,44.47
2018-01-22T11:37:23.699Z,42.05
2018-01-22T11:39:51.174Z,40.65
2018-01-22T11:42:18.717Z,43.35
2018-01-22T11:44:46.910Z,41.83
2018-01-22T11:47:14.449Z,42.10
2018-01-22T11:49:42.018Z,40.15
2018-01-22T11:52:09.430Z,41.58
2018-01-22T11:54:37.657Z,43.03
2018-01-22T11:57:05.094Z,39.00
2018-01-22T11:59:32.569Z,37.65
2018-01-22T12:02:00.009Z,38.53
2018-01-22T12:04:27.570Z,38.53
2018-01-22T12:06:54.981Z,41.97
2018-01-22T12:09:23.206Z,45.67
2018-01-22T12:11:50.647Z,46.37
2018-01-22T12:14:18.114Z,42.30
2018-01-22T12:16:45.574Z,41.63
2018-01-22T12:19:13.029Z,38.53
2018-01-22T12:21:40.446Z,41.25
2018-01-22T12:24:08.666Z,44.20
2018-01-22T12:26:36.220Z,41.70
2018-01-22T12:29:03.678Z,42.17
2018-01-22T12:31:31.165Z,42.55
2018-01-22T12:33:58.622Z,40.72
2018-01-22T12:36:26.031Z,39.40
2018-01-22T12:38:53.474Z,39.08
2018-01-22T12:41:20.901Z,39.92
2018-01-22T12:43:48.342Z,43.47
2018-01-22T12:46:15.770Z,39.55
2018-01-22T12:48:43.282Z,37.90
2018-01-22T12:51:10.726Z,38.22
2018-01-22T12:53:38.275Z,40.55
2018-01-22T12:56:05.726Z,35.95
2018-01-22T12:58:33.190Z,37.63
2018-01-22T13:01:00.625Z,37.25
2018-01-22T13:03:28.075Z,35.22
2018-01-22T13:05:55.557Z,36.67
2018-01-22T13:08:23.000Z,36.25
2018-01-22T13:10:50.418Z,38.22
2018-01-22T13:13:18.623Z,39.47
2018-01-22T13:15:46.066Z,36.83
2018-01-22T13:18:13.558Z,32.17
2018-01-22T13:20:41.006Z,38.45
2018-01-22T13:23:08.441Z,36.83
2018-01-22T13:25:38.705Z,33.55
2018-01-22T13:28:06.205Z,34.33
2018-01-22T13:30:33.654Z,32.47
2018-01-22T13:33:01.851Z,32.28
2018-01-22T13:35:29.331Z,33.60
2018-01-22T13:37:56.872Z,35.70
2018-01-22T13:40:29.933Z,32.53
2018-01-22T13:42:58.218Z,31.40
2018-01-22T13:45:25.695Z,32.67
2018-01-22T13:47:53.251Z,32.28
2018-01-22T13:50:20.669Z,31.55
2018-01-22T13:52:48.982Z,35.42
2018-01-22T13:55:16.539Z,31.35
2018-01-22T13:57:44.015Z,29.45
2018-01-22T14:00:11.453Z,29.75
2018-01-22T14:02:38.907Z,30.50
2018-01-22T14:05:06.322Z,27.60
2018-01-22T14:07:34.538Z,30.00
2018-01-22T14:10:01.982Z,31.37
2018-01-22T14:12:29.490Z,28.05
2018-01-22T14:14:57.776Z,28.60
2018-01-22T14:17:25.284Z,30.70
2018-01-22T14:19:52.699Z,30.20
2018-01-22T14:22:20.938Z,29.12
2018-01-22T14:24:48.370Z,28.30
2018-01-22T14:27:15.825Z,27.05
2018-01-22T14:29:43.385Z,27.15
2018-01-22T14:32:10.861Z,26.65
2018-01-22T14:34:38.306Z,27.52
2018-01-22T14:37:05.856Z,26.10
2018-01-22T14:39:33.295Z,28.08
2018-01-22T14:42:00.746Z,25.88
2018-01-22T14:44:28.201Z,27.13
2018-01-22T14:46:55.784Z,27.73
2018-01-22T14:49:23.342Z,27.10
2018-01-22T14:51:50.765Z,26.65
2018-01-22T14:54:18.990Z,27.33
2018-01-22T14:56:46.442Z,27.15
2018-01-22T14:59:13.911Z,27.02
2018-01-22T15:01:41.442Z,27.52
2018-01-22T15:04:09.001Z,26.02
2018-01-22T15:06:36.426Z,26.35
2018-01-22T15:09:04.626Z,27.75
2018-01-22T15:11:32.113Z,27.10
2018-01-22T15:13:59.566Z,25.55
2018-01-22T15:16:27.016Z,24.83
2018-01-22T15:18:54.482Z,26.62
2018-01-22T15:21:21.917Z,26.48
2018-01-22T15:23:49.398Z,24.73
2018-01-22T15:26:16.843Z,27.50
2018-01-22T15:28:44.400Z,26.65
2018-01-22T15:31:12.047Z,27.17
2018-01-22T15:33:39.466Z,26.52
2018-01-22T15:36:08.069Z,26.77
2018-01-22T15:38:35.657Z,28.23
2018-01-22T15:41:03.202Z,30.23
2018-01-22T15:43:30.635Z,29.70
2018-01-22T15:45:58.834Z,30.65
2018-01-22T15:48:26.288Z,30.92
2018-01-22T15:50:53.726Z,29.67
2018-01-22T15:53:21.608Z,30.70
2018-01-22T15:55:49.064Z,29.45
2018-01-22T15:58:16.493Z,28.23
2018-01-22T16:00:43.997Z,28.73
2018-01-22T16:03:11.469Z,26.95
2018-01-22T16:05:39.005Z,27.45
2018-01-22T16:08:06.443Z,28.05
2018-01-22T16:10:33.891Z,27.48
2018-01-22T16:13:02.182Z,29.08
2018-01-22T16:15:29.638Z,29.52
2018-01-22T16:17:57.214Z,31.10
2018-01-22T16:20:24.774Z,29.40
2018-01-22T16:22:52.316Z,28.87
2018-01-22T16:25:19.810Z,26.90
2018-01-22T16:27:47.335Z,27.50
2018-01-22T16:30:14.760Z,25.70
2018-01-22T16:32:43.021Z,28.50
2018-01-22T16:35:11.358Z,26.40
2018-01-22T16:37:39.003Z,27.08
2018-01-22T16:40:06.599Z,28.12
2018-01-22T16:42:34.115Z,26.87
2018-01-22T16:45:01.673Z,25.80
2018-01-22T16:47:34.640Z,27.00
2018-01-22T16:50:02.162Z,27.20
2018-01-22T16:52:29.678Z,25.43
2018-01-22T16:54:57.129Z,27.45
2018-01-22T16:57:24.588Z,27.40
2018-01-22T16:59:52.054Z,27.63
2018-01-22T17:02:20.230Z,27.93
2018-01-22T17:04:47.773Z,29.95
2018-01-22T17:07:15.232Z,31.17
2018-01-22T17:09:42.796Z,29.42
2018-01-22T17:12:10.350Z,31.02
2018-01-22T17:14:37.762Z,30.30
2018-01-22T17:17:05.358Z,31.62
2018-01-22T17:19:32.731Z,30.25
2018-01-22T17:22:00.191Z,30.92
2018-01-22T17:24:27.649Z,32.72
2018-01-22T17:26:55.098Z,30.73
2018-01-22T17:29:22.561Z,28.92
2018-01-22T17:31:50.103Z,31.15
2018-01-22T17:34:17.522Z,31.17
2018-01-22T17:36:45.864Z,32.03
2018-01-22T17:39:13.269Z,32.75
2018-01-22T17:41:40.735Z,38.55
2018-01-22T17:44:08.241Z,36.45
2018-01-22T17:46:35.690Z,36.83
2018-01-22T17:49:03.134Z,35.35
2018-01-22T17:51:30.582Z,34.28
2018-01-22T17:53:58.017Z,34.05
2018-01-22T17:56:25.453Z,38.00
2018-01-22T17:58:53.650Z,37.97
2018-01-22T18:01:21.091Z,40.00
2018-01-22T18:03:48.601Z,37.08
2018-01-22T18:06:16.045Z,34.97
2018-01-22T18:08:43.473Z,39.50
2018-01-22T18:11:11.748Z,36.03
2018-01-22T18:13:39.182Z,38.55
2018-01-22T18:16:07.414Z,36.60
2018-01-22T18:18:34.845Z,36.17
2018-01-22T18:21:02.301Z,32.97
2018-01-22T18:23:29.729Z,33.80
2018-01-22T18:25:57.954Z,36.78
2018-01-22T18:28:26.002Z,40.38
2018-01-22T18:30:54.414Z,34.45
2018-01-22T18:33:21.841Z,33.03
2018-01-22T18:35:49.274Z,36.23
2018-01-22T18:38:16.765Z,33.90
2018-01-22T18:40:44.307Z,35.95
2018-01-22T18:43:11.721Z,35.72
2018-01-22T18:45:39.941Z,35.28
2018-01-22T18:48:07.377Z,32.00
2018-01-22T18:50:34.818Z,33.50
2018-01-22T18:53:03.125Z,31.80
2018-01-22T18:55:30.558Z,34.30
2018-01-22T18:57:57.998Z,32.40
2018-01-22T19:00:26.237Z,31.40
2018-01-22T19:02:53.670Z,29.97
2018-01-22T19:05:21.177Z,31.37
2018-01-22T19:07:48.668Z,33.47
2018-01-22T19:10:16.105Z,34.00
2018-01-22T19:12:44.330Z,34.10
2018-01-22T19:15:11.766Z,34.15
2018-01-22T19:17:39.267Z,32.55
2018-01-22T19:20:06.710Z,32.28
2018-01-22T19:22:34.135Z,31.12
2018-01-22T19:25:01.700Z,33.58
2018-01-22T19:27:29.121Z,33.22
2018-01-22T19:29:57.349Z,33.08
2018-01-22T19:32:24.813Z,31.70
2018-01-22T19:34:52.390Z,36.08
2018-01-22T19:37:19.846Z,36.45
2018-01-22T19:39:47.393Z,41.53
2018-01-22T19:42:14.913Z,38.25
2018-01-22T19:44:42.404Z,36.53
2018-01-22T19:47:09.846Z,34.38
2018-01-22T19:49:37.293Z,32.83
2018-01-22T19:52:04.840Z,35.85
2018-01-22T19:54:32.890Z,32.30
2018-01-22T19:57:00.339Z,33.27
2018-01-22T19:59:27.864Z,33.10
2018-01-22T20:01:55.280Z,32.60
2018-01-22T20:04:22.760Z,33.67
2018-01-22T20:06:50.219Z,31.15
2018-01-22T20:09:17.643Z,33.83
2018-01-22T20:11:45.077Z,36.03
2018-01-22T20:14:13.302Z,36.85
2018-01-22T20:16:40.744Z,35.33
2018-01-22T20:19:08.187Z,37.83
2018-01-22T20:21:35.647Z,39.38
2018-01-22T20:24:03.126Z,36.13
2018-01-22T20:26:30.590Z,39.28
2018-01-22T20:28:58.205Z,42.47
2018-01-22T20:31:25.653Z,41.15
2018-01-22T20:33:53.096Z,37.90
2018-01-22T20:36:21.306Z,40.35
2018-01-22T20:38:48.746Z,37.67
2018-01-22T20:41:16.192Z,38.83
2018-01-22T20:43:44.377Z,36.03
2018-01-22T20:46:11.896Z,36.05
2018-01-22T20:48:39.430Z,35.80
2018-01-22T20:51:06.885Z,34.72
2018-01-22T20:53:34.310Z,35.55
2018-01-22T20:56:01.747Z,38.33
2018-01-22T20:58:30.062Z,40.33
2018-01-22T21:00:57.529Z,40.75
2018-01-22T21:03:24.976Z,38.20
2018-01-22T21:05:52.409Z,39.08
2018-01-22T21:08:19.846Z,36.83
2018-01-22T21:10:48.074Z,37.43
2018-01-22T21:13:15.506Z,35.05
2018-01-22T21:15:42.964Z,35.03
2018-01-22T21:18:10.369Z,37.00
2018-01-22T21:20:37.894Z,34.85
2018-01-22T21:23:05.352Z,36.30
2018-01-22T21:25:32.782Z,33.20
2018-01-22T21:28:00.217Z,33.28
2018-01-22T21:30:27.904Z,31.42
2018-01-22T21:32:55.471Z,34.50
2018-01-22T21:35:23.021Z,33.13
2018-01-22T21:37:50.447Z,30.08
2018-01-22T21:40:18.754Z,30.90
2018-01-22T21:42:46.208Z,30.25
2018-01-22T21:45:13.697Z,30.12
2018-01-22T21:47:41.251Z,33.72
2018-01-22T21:50:08.715Z,32.85
2018-01-22T21:52:36.249Z,35.40
2018-01-22T21:55:03.721Z,38.55
2018-01-22T21:57:31.270Z,35.53
2018-01-22T21:59:58.705Z,33.63
2018-01-22T22:02:26.202Z,35.28
2018-01-22T22:04:53.638Z,33.92
2018-01-22T22:07:21.083Z,35.15
2018-01-22T22:09:48.570Z,39.45
2018-01-22T22:12:15.990Z,35.57
2018-01-22T22:14:43.470Z,39.93
2018-01-22T22:17:10.910Z,42.67
2018-01-22T22:19:38.345Z,40.97
2018-01-22T22:22:05.788Z,36.58
2018-01-22T22:24:33.273Z,37.05
2018-01-22T22:27:00.686Z,41.45
2018-01-22T22:29:28.902Z,42.80
2018-01-22T22:31:56.337Z,42.72
2018-01-22T22:34:23.778Z,37.85
2018-01-22T22:36:51.976Z,40.25
2018-01-22T22:39:19.450Z,42.35
2018-01-22T22:41:46.942Z,42.42
2018-01-22T22:44:14.374Z,41.22
2018-01-22T22:46:41.833Z,38.15
2018-01-22T22:49:09.267Z,41.72
2018-01-22T22:51:36.849Z,39.25
2018-01-22T22:54:04.315Z,38.58
2018-01-22T22:56:31.975Z,39.80
2018-01-22T22:58:59.405Z,39.00
2018-01-22T23:01:26.830Z,38.25
2018-01-22T23:03:54.330Z,41.78
2018-01-22T23:06:21.794Z,38.05
2018-01-22T23:08:49.250Z,43.08
2018-01-22T23:11:16.682Z,42.55
2018-01-22T23:13:44.135Z,42.20
2018-01-22T23:16:11.622Z,36.83
2018-01-22T23:18:39.078Z,36.58
2018-01-22T23:21:06.544Z,37.85
2018-01-22T23:23:33.982Z,36.85
2018-01-22T23:26:01.414Z,33.40
2018-01-22T23:28:28.847Z,34.80
2018-01-22T23:30:57.041Z,36.13
2018-01-22T23:33:24.485Z,36.05
2018-01-22T23:35:51.913Z,34.67
2018-01-22T23:38:20.134Z,33.95
2018-01-22T23:40:47.618Z,33.33
2018-01-22T23:43:15.054Z,30.10
2018-01-22T23:45:42.496Z,28.60
2018-01-22T23:48:09.937Z,30.47
2018-01-22T23:50:37.370Z,30.20
2018-01-22T23:53:04.801Z,31.23
2018-01-22T23:55:32.246Z,29.55
2018-01-22T23:57:59.701Z,31.92
